Strona główna
METAR-TAF:

METAR-TAF

Lotnisko :

Port lotniczy Nawakszut

Nawakszut, Mauretania

Szerokość geograficzna: 18-18-36N, Długość geograficzna: 015-58-11W, wysokość: 3 m

Aktualna obserwacja pogody

Raport powstał 41 minut temu, godzina 08:00 UTC
Wiatr 3 kt od zachód
Temperatura 26°C
Wilgotność 84%
Ciśnienie 1013 hPa
Widzialność: 8000 m

METAR: GQNO 210800Z 27003KT 8000 NSC 26/23 Q1013 NOSIG

czas: 08:41 (08:41 UTC)

Prognoza

Raport powstał 3 godziny i 41 minut temu, godzina 05:00 UTC
Prognoza ważna od 21 godzina 06 UTC do 22 godzina 12 UTC
Wiatr 14 kt od północny zachód
Widzialność: 7000 m

TAF: GQNO 210500Z 2106/2212 32014KT 7000 NSC

Obserwacja i prognoza pogody dla ponad 4000 lotnisk (raport METAR i TAF).

Dostępne stacje oznaczono żółtymi i czerwonymi punktami na mapie.

Najedź kursorem aby zobaczyć nazwę stacji.

Kliknij aby zobaczyć obserwacje i prognozy pogody.

Aby zmienić mapę: kliknij na zielony przycisk z czarnym krzyżykiem, aby powiększyć; na zielony przycisk z myślnikiem, aby pomniejszyć; na zielone strzałki, aby przejść do map sąsiednich.


METAR-TAF: